sensor_id;sensor_type;location;lat;lon;timestamp;P1;durP1;ratioP1;P2;durP2;ratioP2
20454;SDS011;10386;54.314;10.022;2023-04-24T00:00:17;8.30;;;6.27;;
20454;SDS011;10386;54.314;10.022;2023-04-24T00:02:44;8.37;;;5.93;;
20454;SDS011;10386;54.314;10.022;2023-04-24T00:05:15;10.97;;;6.43;;
20454;SDS011;10386;54.314;10.022;2023-04-24T00:07:44;8.60;;;6.23;;
20454;SDS011;10386;54.314;10.022;2023-04-24T00:10:11;8.23;;;6.07;;
20454;SDS011;10386;54.314;10.022;2023-04-24T00:12:38;9.20;;;7.00;;
20454;SDS011;10386;54.314;10.022;2023-04-24T00:15:05;10.37;;;6.70;;
20454;SDS011;10386;54.314;10.022;2023-04-24T00:17:33;12.13;;;7.50;;
20454;SDS011;10386;54.314;10.022;2023-04-24T00:19:59;11.23;;;7.70;;
20454;SDS011;10386;54.314;10.022;2023-04-24T00:22:28;11.97;;;7.33;;
20454;SDS011;10386;54.314;10.022;2023-04-24T00:24:54;14.00;;;8.10;;
20454;SDS011;10386;54.314;10.022;2023-04-24T00:27:21;11.20;;;7.80;;
20454;SDS011;10386;54.314;10.022;2023-04-24T00:29:49;14.13;;;7.60;;
20454;SDS011;10386;54.314;10.022;2023-04-24T00:32:16;11.50;;;7.87;;
20454;SDS011;10386;54.314;10.022;2023-04-24T00:34:44;14.67;;;7.50;;
20454;SDS011;10386;54.314;10.022;2023-04-24T00:37:11;11.33;;;8.03;;
20454;SDS011;10386;54.314;10.022;2023-04-24T00:39:38;12.03;;;8.00;;
20454;SDS011;10386;54.314;10.022;2023-04-24T00:42:05;12.70;;;7.50;;
20454;SDS011;10386;54.314;10.022;2023-04-24T00:44:33;11.53;;;7.63;;
20454;SDS011;10386;54.314;10.022;2023-04-24T00:47:01;13.53;;;8.33;;
20454;SDS011;10386;54.314;10.022;2023-04-24T00:49:28;10.97;;;7.77;;
20454;SDS011;10386;54.314;10.022;2023-04-24T00:51:55;11.87;;;7.30;;
20454;SDS011;10386;54.314;10.022;2023-04-24T00:54:23;11.73;;;8.27;;
20454;SDS011;10386;54.314;10.022;2023-04-24T00:56:50;13.43;;;7.77;;
20454;SDS011;10386;54.314;10.022;2023-04-24T00:59:17;11.17;;;7.40;;
20454;SDS011;10386;54.314;10.022;2023-04-24T01:01:45;16.10;;;7.60;;
20454;SDS011;10386;54.314;10.022;2023-04-24T01:04:12;20.83;;;8.30;;
20454;SDS011;10386;54.314;10.022;2023-04-24T01:06:40;10.33;;;7.47;;
20454;SDS011;10386;54.314;10.022;2023-04-24T01:09:10;12.90;;;7.73;;
20454;SDS011;10386;54.314;10.022;2023-04-24T01:11:38;13.97;;;7.90;;
20454;SDS011;10386;54.314;10.022;2023-04-24T01:14:09;10.07;;;7.30;;
20454;SDS011;10386;54.314;10.022;2023-04-24T01:16:36;10.70;;;7.30;;
20454;SDS011;10386;54.314;10.022;2023-04-24T01:19:05;10.50;;;7.23;;
20454;SDS011;10386;54.314;10.022;2023-04-24T01:21:36;11.67;;;7.20;;
20454;SDS011;10386;54.314;10.022;2023-04-24T01:24:05;12.03;;;6.33;;
20454;SDS011;10386;54.314;10.022;2023-04-24T01:26:32;10.67;;;6.87;;
20454;SDS011;10386;54.314;10.022;2023-04-24T01:29:00;13.97;;;7.23;;
20454;SDS011;10386;54.314;10.022;2023-04-24T01:31:26;9.87;;;7.07;;
20454;SDS011;10386;54.314;10.022;2023-04-24T01:33:55;8.07;;;6.13;;
20454;SDS011;10386;54.314;10.022;2023-04-24T01:36:22;8.03;;;6.43;;
20454;SDS011;10386;54.314;10.022;2023-04-24T01:38:52;8.67;;;6.27;;
20454;SDS011;10386;54.314;10.022;2023-04-24T01:41:19;11.20;;;6.17;;
20454;SDS011;10386;54.314;10.022;2023-04-24T01:43:46;8.33;;;6.50;;
20454;SDS011;10386;54.314;10.022;2023-04-24T01:46:15;10.53;;;6.37;;
20454;SDS011;10386;54.314;10.022;2023-04-24T01:48:42;7.93;;;5.90;;
20454;SDS011;10386;54.314;10.022;2023-04-24T01:51:09;12.17;;;6.30;;
20454;SDS011;10386;54.314;10.022;2023-04-24T01:53:36;10.80;;;5.90;;
20454;SDS011;10386;54.314;10.022;2023-04-24T01:56:03;9.50;;;6.30;;
20454;SDS011;10386;54.314;10.022;2023-04-24T01:58:30;9.43;;;5.53;;
20454;SDS011;10386;54.314;10.022;2023-04-24T02:00:57;8.90;;;6.07;;
20454;SDS011;10386;54.314;10.022;2023-04-24T02:03:25;11.87;;;6.40;;
20454;SDS011;10386;54.314;10.022;2023-04-24T02:05:53;10.27;;;6.07;;
20454;SDS011;10386;54.314;10.022;2023-04-24T02:08:22;10.67;;;6.57;;
20454;SDS011;10386;54.314;10.022;2023-04-24T02:10:49;7.67;;;5.73;;
20454;SDS011;10386;54.314;10.022;2023-04-24T02:13:16;11.03;;;6.63;;
20454;SDS011;10386;54.314;10.022;2023-04-24T02:15:43;9.67;;;6.70;;
20454;SDS011;10386;54.314;10.022;2023-04-24T02:18:10;10.33;;;6.33;;
20454;SDS011;10386;54.314;10.022;2023-04-24T02:20:37;9.47;;;7.07;;
20454;SDS011;10386;54.314;10.022;2023-04-24T02:23:04;9.20;;;6.30;;
20454;SDS011;10386;54.314;10.022;2023-04-24T02:25:31;13.37;;;6.47;;
20454;SDS011;10386;54.314;10.022;2023-04-24T02:27:58;9.83;;;6.57;;
20454;SDS011;10386;54.314;10.022;2023-04-24T02:30:24;12.60;;;6.50;;
20454;SDS011;10386;54.314;10.022;2023-04-24T02:32:51;8.23;;;5.90;;
20454;SDS011;10386;54.314;10.022;2023-04-24T02:35:18;13.83;;;6.90;;
20454;SDS011;10386;54.314;10.022;2023-04-24T02:37:45;9.73;;;6.67;;
20454;SDS011;10386;54.314;10.022;2023-04-24T02:40:12;8.97;;;6.50;;
20454;SDS011;10386;54.314;10.022;2023-04-24T02:42:38;8.87;;;6.53;;
20454;SDS011;10386;54.314;10.022;2023-04-24T02:45:05;11.97;;;7.33;;
20454;SDS011;10386;54.314;10.022;2023-04-24T02:47:32;10.83;;;6.57;;
20454;SDS011;10386;54.314;10.022;2023-04-24T02:49:59;9.27;;;6.90;;
20454;SDS011;10386;54.314;10.022;2023-04-24T02:52:26;10.67;;;7.33;;
20454;SDS011;10386;54.314;10.022;2023-04-24T02:54:53;9.20;;;6.90;;
20454;SDS011;10386;54.314;10.022;2023-04-24T02:57:20;11.97;;;6.93;;
20454;SDS011;10386;54.314;10.022;2023-04-24T02:59:47;9.10;;;6.40;;
20454;SDS011;10386;54.314;10.022;2023-04-24T03:02:14;7.70;;;6.60;;
20454;SDS011;10386;54.314;10.022;2023-04-24T03:04:41;10.83;;;7.07;;
20454;SDS011;10386;54.314;10.022;2023-04-24T03:07:09;10.03;;;7.23;;
20454;SDS011;10386;54.314;10.022;2023-04-24T03:09:36;8.37;;;6.30;;
20454;SDS011;10386;54.314;10.022;2023-04-24T03:12:03;10.27;;;6.80;;
20454;SDS011;10386;54.314;10.022;2023-04-24T03:14:29;8.50;;;6.40;;
20454;SDS011;10386;54.314;10.022;2023-04-24T03:16:57;7.90;;;6.57;;
20454;SDS011;10386;54.314;10.022;2023-04-24T03:19:24;8.93;;;6.33;;
20454;SDS011;10386;54.314;10.022;2023-04-24T03:21:51;10.13;;;6.10;;
20454;SDS011;10386;54.314;10.022;2023-04-24T03:24:17;12.63;;;6.90;;
20454;SDS011;10386;54.314;10.022;2023-04-24T03:26:44;8.27;;;6.83;;
20454;SDS011;10386;54.314;10.022;2023-04-24T03:29:11;9.93;;;6.53;;
20454;SDS011;10386;54.314;10.022;2023-04-24T03:31:38;8.63;;;6.00;;
20454;SDS011;10386;54.314;10.022;2023-04-24T03:34:04;10.73;;;7.13;;
20454;SDS011;10386;54.314;10.022;2023-04-24T03:36:31;9.23;;;6.70;;
20454;SDS011;10386;54.314;10.022;2023-04-24T03:38:58;11.50;;;6.73;;
20454;SDS011;10386;54.314;10.022;2023-04-24T03:41:25;10.10;;;6.90;;
20454;SDS011;10386;54.314;10.022;2023-04-24T03:43:51;14.47;;;7.67;;
20454;SDS011;10386;54.314;10.022;2023-04-24T03:46:18;9.53;;;6.60;;
20454;SDS011;10386;54.314;10.022;2023-04-24T03:48:45;10.23;;;6.37;;
20454;SDS011;10386;54.314;10.022;2023-04-24T03:51:12;10.23;;;6.67;;
20454;SDS011;10386;54.314;10.022;2023-04-24T03:53:39;9.90;;;6.87;;
20454;SDS011;10386;54.314;10.022;2023-04-24T03:56:06;10.13;;;6.80;;
20454;SDS011;10386;54.314;10.022;2023-04-24T03:58:32;8.03;;;6.40;;
20454;SDS011;10386;54.314;10.022;2023-04-24T04:00:59;8.17;;;6.43;;
20454;SDS011;10386;54.314;10.022;2023-04-24T04:03:26;9.30;;;6.13;;
20454;SDS011;10386;54.314;10.022;2023-04-24T04:05:53;11.80;;;6.50;;
20454;SDS011;10386;54.314;10.022;2023-04-24T04:08:20;7.50;;;5.67;;
20454;SDS011;10386;54.314;10.022;2023-04-24T04:10:47;8.07;;;5.77;;
20454;SDS011;10386;54.314;10.022;2023-04-24T04:13:14;7.90;;;5.40;;
20454;SDS011;10386;54.314;10.022;2023-04-24T04:15:40;9.03;;;5.53;;
20454;SDS011;10386;54.314;10.022;2023-04-24T04:18:07;9.53;;;6.10;;
20454;SDS011;10386;54.314;10.022;2023-04-24T04:20:35;7.77;;;5.60;;
20454;SDS011;10386;54.314;10.022;2023-04-24T04:23:01;8.33;;;5.63;;
20454;SDS011;10386;54.314;10.022;2023-04-24T04:25:28;10.30;;;6.10;;
20454;SDS011;10386;54.314;10.022;2023-04-24T04:27:55;7.73;;;5.87;;
20454;SDS011;10386;54.314;10.022;2023-04-24T04:30:22;6.40;;;5.17;;
20454;SDS011;10386;54.314;10.022;2023-04-24T04:32:49;7.43;;;5.67;;
20454;SDS011;10386;54.314;10.022;2023-04-24T04:35:16;8.00;;;5.77;;
20454;SDS011;10386;54.314;10.022;2023-04-24T04:37:43;8.17;;;5.30;;
20454;SDS011;10386;54.314;10.022;2023-04-24T04:40:10;6.67;;;5.00;;
20454;SDS011;10386;54.314;10.022;2023-04-24T04:42:38;6.60;;;5.00;;
20454;SDS011;10386;54.314;10.022;2023-04-24T04:45:09;6.93;;;4.67;;
20454;SDS011;10386;54.314;10.022;2023-04-24T04:47:37;5.27;;;4.60;;
20454;SDS011;10386;54.314;10.022;2023-04-24T04:50:06;5.00;;;4.20;;
20454;SDS011;10386;54.314;10.022;2023-04-24T04:52:33;5.00;;;4.27;;
20454;SDS011;10386;54.314;10.022;2023-04-24T04:54:59;5.20;;;4.50;;
20454;SDS011;10386;54.314;10.022;2023-04-24T04:57:26;3.67;;;3.37;;
20454;SDS011;10386;54.314;10.022;2023-04-24T04:59:53;5.17;;;4.20;;
20454;SDS011;10386;54.314;10.022;2023-04-24T05:02:21;4.90;;;3.60;;
20454;SDS011;10386;54.314;10.022;2023-04-24T05:04:48;4.77;;;3.67;;
20454;SDS011;10386;54.314;10.022;2023-04-24T05:07:15;3.83;;;3.53;;
20454;SDS011;10386;54.314;10.022;2023-04-24T05:09:42;4.57;;;3.30;;
20454;SDS011;10386;54.314;10.022;2023-04-24T05:12:10;3.50;;;3.20;;
20454;SDS011;10386;54.314;10.022;2023-04-24T05:14:37;3.60;;;2.90;;
20454;SDS011;10386;54.314;10.022;2023-04-24T05:17:03;4.10;;;3.43;;
20454;SDS011;10386;54.314;10.022;2023-04-24T05:19:31;4.03;;;3.23;;
20454;SDS011;10386;54.314;10.022;2023-04-24T05:22:02;3.50;;;3.03;;
20454;SDS011;10386;54.314;10.022;2023-04-24T05:24:30;4.00;;;3.60;;
20454;SDS011;10386;54.314;10.022;2023-04-24T05:26:57;5.03;;;3.33;;
20454;SDS011;10386;54.314;10.022;2023-04-24T05:29:24;5.80;;;3.70;;
20454;SDS011;10386;54.314;10.022;2023-04-24T05:31:52;4.73;;;3.90;;
20454;SDS011;10386;54.314;10.022;2023-04-24T05:34:19;3.80;;;3.50;;
20454;SDS011;10386;54.314;10.022;2023-04-24T05:36:46;3.47;;;3.17;;
20454;SDS011;10386;54.314;10.022;2023-04-24T05:39:13;2.93;;;2.73;;
20454;SDS011;10386;54.314;10.022;2023-04-24T05:41:41;4.00;;;3.60;;
20454;SDS011;10386;54.314;10.022;2023-04-24T05:44:09;3.60;;;3.30;;
20454;SDS011;10386;54.314;10.022;2023-04-24T05:46:35;3.90;;;3.50;;
20454;SDS011;10386;54.314;10.022;2023-04-24T05:49:02;5.50;;;3.57;;
20454;SDS011;10386;54.314;10.022;2023-04-24T05:51:29;4.00;;;3.57;;
20454;SDS011;10386;54.314;10.022;2023-04-24T05:53:56;3.60;;;3.30;;
20454;SDS011;10386;54.314;10.022;2023-04-24T05:56:23;6.33;;;3.50;;
20454;SDS011;10386;54.314;10.022;2023-04-24T05:58:50;4.57;;;3.83;;
20454;SDS011;10386;54.314;10.022;2023-04-24T06:01:17;5.00;;;3.50;;
20454;SDS011;10386;54.314;10.022;2023-04-24T06:03:44;3.80;;;3.50;;
20454;SDS011;10386;54.314;10.022;2023-04-24T06:06:12;5.63;;;3.03;;
20454;SDS011;10386;54.314;10.022;2023-04-24T06:08:40;3.90;;;3.33;;
20454;SDS011;10386;54.314;10.022;2023-04-24T06:11:08;4.00;;;3.63;;
20454;SDS011;10386;54.314;10.022;2023-04-24T06:13:35;4.10;;;3.70;;
20454;SDS011;10386;54.314;10.022;2023-04-24T06:16:02;3.63;;;3.20;;
20454;SDS011;10386;54.314;10.022;2023-04-24T06:18:29;5.83;;;3.70;;
20454;SDS011;10386;54.314;10.022;2023-04-24T06:20:56;3.70;;;3.40;;
20454;SDS011;10386;54.314;10.022;2023-04-24T06:23:22;3.40;;;3.10;;
20454;SDS011;10386;54.314;10.022;2023-04-24T06:25:49;3.37;;;3.17;;
20454;SDS011;10386;54.314;10.022;2023-04-24T06:28:16;3.77;;;3.37;;
20454;SDS011;10386;54.314;10.022;2023-04-24T06:30:43;3.40;;;3.10;;
20454;SDS011;10386;54.314;10.022;2023-04-24T06:33:10;3.80;;;3.40;;
20454;SDS011;10386;54.314;10.022;2023-04-24T06:35:46;3.40;;;3.10;;
20454;SDS011;10386;54.314;10.022;2023-04-24T06:38:13;4.13;;;3.20;;
20454;SDS011;10386;54.314;10.022;2023-04-24T06:40:40;3.43;;;3.13;;
20454;SDS011;10386;54.314;10.022;2023-04-24T06:43:07;4.73;;;3.40;;
20454;SDS011;10386;54.314;10.022;2023-04-24T06:45:34;3.20;;;2.70;;
20454;SDS011;10386;54.314;10.022;2023-04-24T06:48:00;3.53;;;3.20;;
20454;SDS011;10386;54.314;10.022;2023-04-24T06:50:27;3.30;;;3.00;;
20454;SDS011;10386;54.314;10.022;2023-04-24T06:52:54;4.00;;;3.03;;
20454;SDS011;10386;54.314;10.022;2023-04-24T06:55:21;3.70;;;3.17;;
20454;SDS011;10386;54.314;10.022;2023-04-24T06:57:47;3.57;;;3.27;;
20454;SDS011;10386;54.314;10.022;2023-04-24T07:00:14;3.87;;;3.57;;
20454;SDS011;10386;54.314;10.022;2023-04-24T07:02:41;3.43;;;3.13;;
20454;SDS011;10386;54.314;10.022;2023-04-24T07:05:08;6.10;;;3.40;;
20454;SDS011;10386;54.314;10.022;2023-04-24T07:07:35;3.70;;;3.40;;
20454;SDS011;10386;54.314;10.022;2023-04-24T07:10:04;3.77;;;3.47;;
20454;SDS011;10386;54.314;10.022;2023-04-24T07:12:31;3.70;;;3.40;;
20454;SDS011;10386;54.314;10.022;2023-04-24T07:14:59;4.23;;;3.50;;
20454;SDS011;10386;54.314;10.022;2023-04-24T07:17:27;5.53;;;3.60;;
20454;SDS011;10386;54.314;10.022;2023-04-24T07:19:53;3.50;;;3.20;;
20454;SDS011;10386;54.314;10.022;2023-04-24T07:22:20;3.87;;;3.40;;
20454;SDS011;10386;54.314;10.022;2023-04-24T07:24:47;3.97;;;3.60;;
20454;SDS011;10386;54.314;10.022;2023-04-24T07:27:14;5.40;;;3.43;;
20454;SDS011;10386;54.314;10.022;2023-04-24T07:29:41;4.60;;;3.87;;
20454;SDS011;10386;54.314;10.022;2023-04-24T07:32:09;3.90;;;3.10;;
20454;SDS011;10386;54.314;10.022;2023-04-24T07:34:36;3.60;;;3.23;;
20454;SDS011;10386;54.314;10.022;2023-04-24T07:37:03;4.70;;;3.60;;
20454;SDS011;10386;54.314;10.022;2023-04-24T07:39:30;3.47;;;3.17;;
20454;SDS011;10386;54.314;10.022;2023-04-24T07:41:57;3.80;;;3.37;;
20454;SDS011;10386;54.314;10.022;2023-04-24T07:44:26;3.70;;;3.40;;
20454;SDS011;10386;54.314;10.022;2023-04-24T07:46:52;5.80;;;3.17;;
20454;SDS011;10386;54.314;10.022;2023-04-24T07:49:20;4.27;;;3.60;;
20454;SDS011;10386;54.314;10.022;2023-04-24T07:51:47;4.20;;;3.80;;
20454;SDS011;10386;54.314;10.022;2023-04-24T07:54:14;4.80;;;3.53;;
20454;SDS011;10386;54.314;10.022;2023-04-24T07:56:41;5.07;;;3.63;;
20454;SDS011;10386;54.314;10.022;2023-04-24T07:59:09;5.70;;;3.80;;
20454;SDS011;10386;54.314;10.022;2023-04-24T08:01:37;3.57;;;3.27;;
20454;SDS011;10386;54.314;10.022;2023-04-24T08:04:04;5.23;;;3.50;;
20454;SDS011;10386;54.314;10.022;2023-04-24T08:06:31;4.30;;;3.70;;
20454;SDS011;10386;54.314;10.022;2023-04-24T08:08:59;4.27;;;3.80;;
20454;SDS011;10386;54.314;10.022;2023-04-24T08:11:26;6.03;;;3.47;;
20454;SDS011;10386;54.314;10.022;2023-04-24T08:13:55;4.97;;;3.83;;
20454;SDS011;10386;54.314;10.022;2023-04-24T08:16:23;6.17;;;3.87;;
20454;SDS011;10386;54.314;10.022;2023-04-24T08:18:50;4.37;;;3.50;;
20454;SDS011;10386;54.314;10.022;2023-04-24T08:21:19;5.07;;;3.60;;
20454;SDS011;10386;54.314;10.022;2023-04-24T08:23:47;3.90;;;3.57;;
20454;SDS011;10386;54.314;10.022;2023-04-24T08:26:13;5.80;;;3.77;;
20454;SDS011;10386;54.314;10.022;2023-04-24T08:28:41;4.77;;;3.43;;
20454;SDS011;10386;54.314;10.022;2023-04-24T08:31:08;4.60;;;3.43;;
20454;SDS011;10386;54.314;10.022;2023-04-24T08:33:35;4.60;;;3.90;;
20454;SDS011;10386;54.314;10.022;2023-04-24T08:36:05;4.17;;;3.43;;
20454;SDS011;10386;54.314;10.022;2023-04-24T08:38:32;3.50;;;3.20;;
20454;SDS011;10386;54.314;10.022;2023-04-24T08:41:00;4.77;;;3.27;;
20454;SDS011;10386;54.314;10.022;2023-04-24T08:43:28;5.03;;;4.30;;
20454;SDS011;10386;54.314;10.022;2023-04-24T08:45:56;5.73;;;3.97;;
20454;SDS011;10386;54.314;10.022;2023-04-24T08:48:23;5.00;;;4.50;;
20454;SDS011;10386;54.314;10.022;2023-04-24T08:50:58;4.50;;;3.83;;
20454;SDS011;10386;54.314;10.022;2023-04-24T08:53:25;5.83;;;4.30;;
20454;SDS011;10386;54.314;10.022;2023-04-24T08:55:54;4.47;;;4.07;;
20454;SDS011;10386;54.314;10.022;2023-04-24T08:58:24;5.87;;;4.03;;
20454;SDS011;10386;54.314;10.022;2023-04-24T09:00:55;4.67;;;4.10;;
20454;SDS011;10386;54.314;10.022;2023-04-24T09:03:23;5.40;;;4.20;;
20454;SDS011;10386;54.314;10.022;2023-04-24T09:05:54;5.20;;;4.00;;
20454;SDS011;10386;54.314;10.022;2023-04-24T09:08:24;4.53;;;4.07;;
20454;SDS011;10386;54.314;10.022;2023-04-24T09:10:52;5.17;;;4.27;;
20454;SDS011;10386;54.314;10.022;2023-04-24T09:13:20;8.07;;;3.90;;
20454;SDS011;10386;54.314;10.022;2023-04-24T09:15:48;5.53;;;4.13;;
20454;SDS011;10386;54.314;10.022;2023-04-24T09:18:16;6.30;;;4.30;;
20454;SDS011;10386;54.314;10.022;2023-04-24T09:21:03;4.40;;;4.00;;
20454;SDS011;10386;54.314;10.022;2023-04-24T09:23:33;7.87;;;4.30;;
20454;SDS011;10386;54.314;10.022;2023-04-24T09:26:00;6.03;;;4.53;;
20454;SDS011;10386;54.314;10.022;2023-04-24T09:31:19;6.80;;;4.77;;
20454;SDS011;10386;54.314;10.022;2023-04-24T09:33:58;6.97;;;4.70;;
20454;SDS011;10386;54.314;10.022;2023-04-24T09:38:59;5.63;;;4.90;;
20454;SDS011;10386;54.314;10.022;2023-04-24T09:41:27;6.90;;;5.60;;
20454;SDS011;10386;54.314;10.022;2023-04-24T09:43:58;5.87;;;5.20;;
20454;SDS011;10386;54.314;10.022;2023-04-24T09:46:41;7.07;;;5.77;;
20454;SDS011;10386;54.314;10.022;2023-04-24T09:49:09;7.10;;;6.30;;
20454;SDS011;10386;54.314;10.022;2023-04-24T09:51:38;7.37;;;6.30;;
20454;SDS011;10386;54.314;10.022;2023-04-24T09:54:15;7.50;;;6.57;;
20454;SDS011;10386;54.314;10.022;2023-04-24T09:56:48;7.63;;;6.83;;
20454;SDS011;10386;54.314;10.022;2023-04-24T09:59:17;7.50;;;6.70;;
20454;SDS011;10386;54.314;10.022;2023-04-24T10:01:45;8.63;;;6.37;;
20454;SDS011;10386;54.314;10.022;2023-04-24T10:04:15;9.80;;;6.30;;
20454;SDS011;10386;54.314;10.022;2023-04-24T10:06:43;8.93;;;7.17;;
20454;SDS011;10386;54.314;10.022;2023-04-24T10:09:11;8.17;;;6.50;;
20454;SDS011;10386;54.314;10.022;2023-04-24T10:11:41;8.73;;;6.50;;
20454;SDS011;10386;54.314;10.022;2023-04-24T10:14:11;7.40;;;6.30;;
20454;SDS011;10386;54.314;10.022;2023-04-24T10:16:40;8.00;;;7.03;;
20454;SDS011;10386;54.314;10.022;2023-04-24T10:19:07;7.63;;;6.07;;
20454;SDS011;10386;54.314;10.022;2023-04-24T10:21:34;8.20;;;5.97;;
20454;SDS011;10386;54.314;10.022;2023-04-24T10:24:05;10.77;;;6.63;;
20454;SDS011;10386;54.314;10.022;2023-04-24T10:26:34;7.47;;;6.17;;
20454;SDS011;10386;54.314;10.022;2023-04-24T10:29:01;7.47;;;6.10;;
20454;SDS011;10386;54.314;10.022;2023-04-24T10:31:30;7.80;;;5.80;;
20454;SDS011;10386;54.314;10.022;2023-04-24T10:33:59;8.10;;;6.97;;
20454;SDS011;10386;54.314;10.022;2023-04-24T10:36:28;7.77;;;6.10;;
20454;SDS011;10386;54.314;10.022;2023-04-24T10:39:00;8.63;;;6.33;;
20454;SDS011;10386;54.314;10.022;2023-04-24T10:41:30;8.77;;;6.67;;
20454;SDS011;10386;54.314;10.022;2023-04-24T10:44:07;8.30;;;6.27;;
20454;SDS011;10386;54.314;10.022;2023-04-24T10:46:36;11.37;;;6.23;;
20454;SDS011;10386;54.314;10.022;2023-04-24T10:49:05;9.10;;;6.17;;
20454;SDS011;10386;54.314;10.022;2023-04-24T10:51:48;9.83;;;6.63;;
20454;SDS011;10386;54.314;10.022;2023-04-24T10:54:27;7.43;;;6.03;;
20454;SDS011;10386;54.314;10.022;2023-04-24T10:59:49;11.07;;;7.27;;
20454;SDS011;10386;54.314;10.022;2023-04-24T11:02:17;11.70;;;6.37;;
20454;SDS011;10386;54.314;10.022;2023-04-24T11:04:45;6.93;;;5.80;;
20454;SDS011;10386;54.314;10.022;2023-04-24T11:07:12;9.67;;;6.50;;
20454;SDS011;10386;54.314;10.022;2023-04-24T11:09:43;8.03;;;6.10;;
20454;SDS011;10386;54.314;10.022;2023-04-24T11:12:11;7.57;;;6.03;;
20454;SDS011;10386;54.314;10.022;2023-04-24T11:20:00;7.30;;;6.53;;
20454;SDS011;10386;54.314;10.022;2023-04-24T11:22:52;7.07;;;6.37;;
20454;SDS011;10386;54.314;10.022;2023-04-24T11:25:24;9.73;;;6.57;;
20454;SDS011;10386;54.314;10.022;2023-04-24T11:27:52;9.50;;;6.77;;
20454;SDS011;10386;54.314;10.022;2023-04-24T11:30:31;10.77;;;7.13;;
20454;SDS011;10386;54.314;10.022;2023-04-24T11:33:03;10.40;;;7.07;;
20454;SDS011;10386;54.314;10.022;2023-04-24T11:35:34;10.13;;;6.97;;
20454;SDS011;10386;54.314;10.022;2023-04-24T11:38:05;8.00;;;6.63;;
20454;SDS011;10386;54.314;10.022;2023-04-24T11:40:49;8.60;;;6.43;;
20454;SDS011;10386;54.314;10.022;2023-04-24T11:43:19;11.37;;;7.47;;
20454;SDS011;10386;54.314;10.022;2023-04-24T11:45:49;10.50;;;7.53;;
20454;SDS011;10386;54.314;10.022;2023-04-24T11:48:19;13.13;;;7.67;;
20454;SDS011;10386;54.314;10.022;2023-04-24T11:50:49;10.93;;;7.90;;
20454;SDS011;10386;54.314;10.022;2023-04-24T11:53:18;10.17;;;7.40;;
20454;SDS011;10386;54.314;10.022;2023-04-24T11:55:47;11.80;;;8.70;;
20454;SDS011;10386;54.314;10.022;2023-04-24T11:58:13;14.13;;;8.57;;
20454;SDS011;10386;54.314;10.022;2023-04-24T12:00:40;12.90;;;9.40;;
20454;SDS011;10386;54.314;10.022;2023-04-24T12:03:08;13.03;;;8.90;;
20454;SDS011;10386;54.314;10.022;2023-04-24T12:05:37;12.73;;;8.63;;
20454;SDS011;10386;54.314;10.022;2023-04-24T12:08:05;13.70;;;9.17;;
20454;SDS011;10386;54.314;10.022;2023-04-24T12:10:33;13.13;;;8.73;;
20454;SDS011;10386;54.314;10.022;2023-04-24T12:13:01;13.77;;;9.00;;
20454;SDS011;10386;54.314;10.022;2023-04-24T12:15:28;13.63;;;8.33;;
20454;SDS011;10386;54.314;10.022;2023-04-24T12:17:55;11.87;;;8.30;;
20454;SDS011;10386;54.314;10.022;2023-04-24T12:20:30;10.93;;;8.20;;
20454;SDS011;10386;54.314;10.022;2023-04-24T12:23:01;11.87;;;8.30;;
20454;SDS011;10386;54.314;10.022;2023-04-24T12:25:28;12.33;;;8.73;;
20454;SDS011;10386;54.314;10.022;2023-04-24T12:30:34;14.43;;;8.70;;
20454;SDS011;10386;54.314;10.022;2023-04-24T12:33:05;11.03;;;7.30;;
20454;SDS011;10386;54.314;10.022;2023-04-24T12:35:33;11.40;;;8.00;;
20454;SDS011;10386;54.314;10.022;2023-04-24T12:38:05;13.50;;;8.13;;
20454;SDS011;10386;54.314;10.022;2023-04-24T12:40:33;10.03;;;7.30;;
20454;SDS011;10386;54.314;10.022;2023-04-24T12:43:00;11.90;;;7.27;;
20454;SDS011;10386;54.314;10.022;2023-04-24T12:45:27;9.77;;;6.93;;
20454;SDS011;10386;54.314;10.022;2023-04-24T12:47:54;13.23;;;7.90;;
20454;SDS011;10386;54.314;10.022;2023-04-24T12:50:21;13.27;;;8.43;;
20454;SDS011;10386;54.314;10.022;2023-04-24T12:52:48;10.93;;;8.13;;
20454;SDS011;10386;54.314;10.022;2023-04-24T12:55:15;13.30;;;8.30;;
20454;SDS011;10386;54.314;10.022;2023-04-24T12:57:42;13.23;;;8.80;;
20454;SDS011;10386;54.314;10.022;2023-04-24T13:00:08;12.50;;;8.13;;
20454;SDS011;10386;54.314;10.022;2023-04-24T13:02:36;13.63;;;8.70;;
20454;SDS011;10386;54.314;10.022;2023-04-24T13:05:03;11.83;;;8.13;;
20454;SDS011;10386;54.314;10.022;2023-04-24T13:07:32;14.73;;;8.50;;
20454;SDS011;10386;54.314;10.022;2023-04-24T13:10:01;15.40;;;8.70;;
20454;SDS011;10386;54.314;10.022;2023-04-24T13:12:27;18.80;;;9.90;;
20454;SDS011;10386;54.314;10.022;2023-04-24T13:14:54;20.20;;;10.50;;
20454;SDS011;10386;54.314;10.022;2023-04-24T13:20:13;15.43;;;10.67;;
20454;SDS011;10386;54.314;10.022;2023-04-24T13:22:40;22.40;;;12.37;;
20454;SDS011;10386;54.314;10.022;2023-04-24T13:25:09;23.17;;;11.67;;
20454;SDS011;10386;54.314;10.022;2023-04-24T13:27:38;22.20;;;12.67;;
20454;SDS011;10386;54.314;10.022;2023-04-24T13:30:05;23.63;;;12.27;;
20454;SDS011;10386;54.314;10.022;2023-04-24T13:32:32;17.73;;;12.17;;
20454;SDS011;10386;54.314;10.022;2023-04-24T13:35:01;22.07;;;13.30;;
20454;SDS011;10386;54.314;10.022;2023-04-24T13:37:29;24.73;;;13.47;;
20454;SDS011;10386;54.314;10.022;2023-04-24T13:39:55;21.47;;;13.27;;
20454;SDS011;10386;54.314;10.022;2023-04-24T13:42:22;23.67;;;14.00;;
20454;SDS011;10386;54.314;10.022;2023-04-24T13:44:49;21.90;;;13.07;;
20454;SDS011;10386;54.314;10.022;2023-04-24T13:47:17;23.20;;;13.83;;
20454;SDS011;10386;54.314;10.022;2023-04-24T13:49:44;25.73;;;14.23;;
20454;SDS011;10386;54.314;10.022;2023-04-24T13:52:11;23.57;;;13.80;;
20454;SDS011;10386;54.314;10.022;2023-04-24T13:54:38;20.70;;;12.87;;
20454;SDS011;10386;54.314;10.022;2023-04-24T13:57:05;21.53;;;13.90;;
20454;SDS011;10386;54.314;10.022;2023-04-24T13:59:32;24.03;;;13.80;;
20454;SDS011;10386;54.314;10.022;2023-04-24T14:01:58;23.67;;;13.30;;
20454;SDS011;10386;54.314;10.022;2023-04-24T14:04:25;22.37;;;13.13;;
20454;SDS011;10386;54.314;10.022;2023-04-24T14:06:52;23.57;;;13.07;;
20454;SDS011;10386;54.314;10.022;2023-04-24T14:09:19;24.33;;;12.60;;
20454;SDS011;10386;54.314;10.022;2023-04-24T14:11:46;20.93;;;12.33;;
20454;SDS011;10386;54.314;10.022;2023-04-24T14:14:13;20.27;;;11.40;;
20454;SDS011;10386;54.314;10.022;2023-04-24T14:16:39;22.87;;;11.93;;
20454;SDS011;10386;54.314;10.022;2023-04-24T14:19:06;19.17;;;12.00;;
20454;SDS011;10386;54.314;10.022;2023-04-24T14:21:33;17.50;;;10.80;;
20454;SDS011;10386;54.314;10.022;2023-04-24T14:24:00;17.23;;;11.27;;
20454;SDS011;10386;54.314;10.022;2023-04-24T14:26:27;16.50;;;10.73;;
20454;SDS011;10386;54.314;10.022;2023-04-24T14:28:54;18.30;;;11.30;;
20454;SDS011;10386;54.314;10.022;2023-04-24T14:31:39;16.40;;;10.73;;
20454;SDS011;10386;54.314;10.022;2023-04-24T14:34:06;18.97;;;10.50;;
20454;SDS011;10386;54.314;10.022;2023-04-24T14:36:32;18.73;;;11.07;;
20454;SDS011;10386;54.314;10.022;2023-04-24T14:38:59;14.90;;;9.60;;
20454;SDS011;10386;54.314;10.022;2023-04-24T14:41:26;16.77;;;10.13;;
20454;SDS011;10386;54.314;10.022;2023-04-24T14:43:52;10.33;;;6.80;;
20454;SDS011;10386;54.314;10.022;2023-04-24T14:46:19;12.57;;;6.63;;
20454;SDS011;10386;54.314;10.022;2023-04-24T14:48:46;10.10;;;6.40;;
20454;SDS011;10386;54.314;10.022;2023-04-24T14:51:13;13.80;;;6.83;;